Time;durP1;ratioP1;P1;durP2;ratioP2;P2;SDS_P1;SDS_P2;PMS_P1;PMS_P2;Temp;Humidity;BMP_temperature;BMP_pressure;BME280_temperature;BME280_humidity;BME280_pressure;Samples;Min_cycle;Max_cycle;Signal;HPM_P1;HPM_P2
2023/04/12 00:00:43;;;;;;;1.00;0.90;;;;;;;;;;6259767;28;20232;-61
2023/04/12 00:03:49;;;;;;;1.43;1.20;;;;;;;;;;6258304;28;20196;-61
2023/04/12 00:06:53;;;;;;;0.90;0.70;;;;;;;;;;6255497;28;20217;-61
2023/04/12 00:09:54;;;;;;;1.07;0.80;;;;;;;;;;6275941;28;20197;-61
2023/04/12 00:12:55;;;;;;;0.70;0.60;;;;;;;;;;6281187;28;20280;-61
2023/04/12 00:15:56;;;;;;;1.37;0.90;;;;;;;;;;6290860;28;20190;-61
2023/04/12 00:18:57;;;;;;;1.40;0.97;;;;;;;;;;6255972;28;20189;-61
2023/04/12 00:21:58;;;;;;;0.83;0.60;;;;;;;;;;6267654;28;20190;-61
2023/04/12 00:24:59;;;;;;;0.70;0.70;;;;;;;;;;6279061;28;20199;-61
2023/04/12 00:28:00;;;;;;;0.80;0.67;;;;;;;;;;6257113;28;20256;-61
2023/04/12 00:31:01;;;;;;;0.70;0.70;;;;;;;;;;6277828;28;20194;-61
2023/04/12 00:34:03;;;;;;;0.73;0.73;;;;;;;;;;6280268;28;20231;-61
2023/04/12 00:37:04;;;;;;;0.67;0.67;;;;;;;;;;6261682;28;20198;-61
2023/04/12 00:40:07;;;;;;;1.17;0.90;;;;;;;;;;6253433;28;20244;-61
2023/04/12 00:43:09;;;;;;;0.93;0.70;;;;;;;;;;6290775;28;20186;-61
2023/04/12 00:46:11;;;;;;;0.57;0.57;;;;;;;;;;6257408;28;20198;-61
2023/04/12 00:49:12;;;;;;;2.03;0.67;;;;;;;;;;6245052;28;20187;-61
2023/04/12 00:52:16;;;;;;;0.90;0.50;;;;;;;;;;6273878;28;20235;-61
2023/04/12 00:55:18;;;;;;;0.83;0.70;;;;;;;;;;6267995;28;20186;-61
2023/04/12 00:58:20;;;;;;;0.40;0.40;;;;;;;;;;6268883;28;20190;-61
2023/04/12 01:01:21;;;;;;;1.00;0.70;;;;;;;;;;6272933;28;20215;-61
2023/04/12 01:04:25;;;;;;;1.10;0.70;;;;;;;;;;6255412;28;20193;-61
2023/04/12 01:07:45;;;;;;;2.07;0.80;;;;;;;;;;6269020;28;20219;-61
2023/04/12 01:10:49;;;;;;;0.70;0.60;;;;;;;;;;6284704;28;20190;-61
2023/04/12 01:13:58;;;;;;;0.90;0.60;;;;;;;;;;6265220;28;20190;-61
2023/04/12 01:17:01;;;;;;;1.07;0.80;;;;;;;;;;6259774;28;20194;-61
2023/04/12 01:20:15;;;;;;;0.60;0.60;;;;;;;;;;6289507;28;20193;-61
2023/04/12 01:23:20;;;;;;;0.87;0.53;;;;;;;;;;6260913;28;20193;-62
2023/04/12 01:26:31;;;;;;;1.33;0.50;;;;;;;;;;6273741;28;20214;-62
2023/04/12 01:29:32;;;;;;;1.00;0.70;;;;;;;;;;6285810;28;20190;-61
2023/04/12 01:32:34;;;;;;;1.13;0.80;;;;;;;;;;6253220;28;20195;-61
2023/04/12 01:35:36;;;;;;;1.63;0.63;;;;;;;;;;6254473;28;20252;-61
2023/04/12 01:38:39;;;;;;;0.70;0.70;;;;;;;;;;6273674;28;20247;-61
2023/04/12 01:41:44;;;;;;;0.93;0.70;;;;;;;;;;6267597;28;20221;-61
2023/04/12 01:44:46;;;;;;;0.73;0.60;;;;;;;;;;6268763;28;20215;-61
2023/04/12 01:47:47;;;;;;;0.73;0.70;;;;;;;;;;6251593;28;20218;-61
2023/04/12 01:50:48;;;;;;;0.67;0.60;;;;;;;;;;6263302;28;20190;-61
2023/04/12 01:54:00;;;;;;;2.23;1.17;;;;;;;;;;6269182;28;20209;-61
2023/04/12 01:57:03;;;;;;;0.63;0.63;;;;;;;;;;6275460;28;20259;-61
2023/04/12 02:00:06;;;;;;;1.10;0.77;;;;;;;;;;6266037;28;20198;-61
2023/04/12 02:03:08;;;;;;;1.10;0.70;;;;;;;;;;6245328;28;20201;-61
2023/04/12 02:06:10;;;;;;;0.67;0.60;;;;;;;;;;6271751;28;20228;-61
2023/04/12 02:09:11;;;;;;;4.13;1.03;;;;;;;;;;6248858;28;20204;-61
2023/04/12 02:12:12;;;;;;;3.03;0.80;;;;;;;;;;6255730;28;20185;-61
2023/04/12 02:15:13;;;;;;;1.67;0.60;;;;;;;;;;6267808;28;20238;-61
2023/04/12 02:18:15;;;;;;;1.13;0.90;;;;;;;;;;6254843;28;20238;-61
2023/04/12 02:21:17;;;;;;;1.50;0.90;;;;;;;;;;6276928;28;20191;-62
2023/04/12 02:24:18;;;;;;;3.37;0.90;;;;;;;;;;6283032;28;20265;-61
2023/04/12 02:27:19;;;;;;;1.50;1.00;;;;;;;;;;6256108;28;20213;-61
2023/04/12 02:30:20;;;;;;;1.10;0.73;;;;;;;;;;6253903;28;20190;-61
2023/04/12 02:33:26;;;;;;;0.80;0.70;;;;;;;;;;6252014;28;20210;-61
2023/04/12 02:36:28;;;;;;;2.40;0.80;;;;;;;;;;6280492;28;20237;-61
2023/04/12 02:39:31;;;;;;;0.80;0.80;;;;;;;;;;6255096;28;20243;-61
2023/04/12 02:42:32;;;;;;;1.30;0.83;;;;;;;;;;6247690;28;20277;-61
2023/04/12 02:45:33;;;;;;;1.53;1.17;;;;;;;;;;6288272;28;20185;-61
2023/04/12 02:48:34;;;;;;;1.33;1.10;;;;;;;;;;6247974;28;20213;-61
2023/04/12 02:51:36;;;;;;;2.20;1.80;;;;;;;;;;6273305;28;20204;-61
2023/04/12 02:54:38;;;;;;;1.83;1.63;;;;;;;;;;6270587;28;20189;-61
2023/04/12 02:57:40;;;;;;;3.47;1.57;;;;;;;;;;6249743;28;20286;-61
2023/04/12 03:00:42;;;;;;;1.90;1.23;;;;;;;;;;6249688;28;20205;-61
2023/04/12 03:03:43;;;;;;;2.50;1.20;;;;;;;;;;6255665;28;20191;-61
2023/04/12 03:06:52;;;;;;;1.80;1.50;;;;;;;;;;6254490;28;20209;-61
2023/04/12 03:09:54;;;;;;;1.63;1.50;;;;;;;;;;6240475;28;20199;-62
2023/04/12 03:12:55;;;;;;;2.30;1.63;;;;;;;;;;6259095;28;20197;-62
2023/04/12 03:15:58;;;;;;;1.97;1.57;;;;;;;;;;6272820;28;20200;-62
2023/04/12 03:18:59;;;;;;;2.30;1.43;;;;;;;;;;6290514;28;20200;-61
2023/04/12 03:22:01;;;;;;;2.53;1.30;;;;;;;;;;6261125;28;20260;-61
2023/04/12 03:25:03;;;;;;;1.70;1.23;;;;;;;;;;6292270;28;20198;-61
2023/04/12 03:28:04;;;;;;;2.33;1.20;;;;;;;;;;6271977;28;20212;-61
2023/04/12 03:31:05;;;;;;;2.50;1.40;;;;;;;;;;6291266;28;20220;-61
2023/04/12 03:34:07;;;;;;;1.50;1.30;;;;;;;;;;6259833;28;20189;-61
2023/04/12 03:37:08;;;;;;;1.93;1.30;;;;;;;;;;6273216;28;20198;-61
2023/04/12 03:40:09;;;;;;;2.00;1.13;;;;;;;;;;6274000;28;20192;-61
2023/04/12 03:43:10;;;;;;;4.60;1.23;;;;;;;;;;6276197;28;20347;-61
2023/04/12 03:46:14;;;;;;;2.33;1.20;;;;;;;;;;6256670;28;20284;-61
2023/04/12 03:49:15;;;;;;;3.97;1.30;;;;;;;;;;6251612;28;20193;-61
2023/04/12 03:52:16;;;;;;;2.07;1.30;;;;;;;;;;6274961;28;20255;-61
2023/04/12 03:55:17;;;;;;;2.57;1.40;;;;;;;;;;6292397;28;20198;-61
2023/04/12 03:58:19;;;;;;;1.97;1.20;;;;;;;;;;6291767;28;20710;-61
2023/04/12 04:01:20;;;;;;;2.00;1.17;;;;;;;;;;6271618;28;20271;-61
2023/04/12 04:04:22;;;;;;;2.07;1.40;;;;;;;;;;6258315;28;20209;-62
2023/04/12 04:07:23;;;;;;;2.27;0.80;;;;;;;;;;6290322;28;20217;-61
2023/04/12 04:10:24;;;;;;;2.80;1.43;;;;;;;;;;6275634;28;20280;-61
2023/04/12 04:13:25;;;;;;;2.63;1.20;;;;;;;;;;6252033;28;20204;-61
2023/04/12 04:16:28;;;;;;;1.50;1.10;;;;;;;;;;6252488;28;20248;-61
2023/04/12 04:19:30;;;;;;;2.00;1.20;;;;;;;;;;6273395;28;20201;-62
2023/04/12 04:22:31;;;;;;;1.87;1.40;;;;;;;;;;6253126;28;20239;-62
2023/04/12 04:25:32;;;;;;;1.60;1.20;;;;;;;;;;6274972;28;20213;-61
2023/04/12 04:28:33;;;;;;;1.97;1.40;;;;;;;;;;6263625;28;20221;-61
2023/04/12 04:31:35;;;;;;;2.10;1.70;;;;;;;;;;6290834;28;20258;-61
2023/04/12 04:34:36;;;;;;;3.23;1.70;;;;;;;;;;6290296;28;20220;-61
2023/04/12 04:37:37;;;;;;;4.10;1.60;;;;;;;;;;6249373;28;20197;-61
2023/04/12 04:40:38;;;;;;;3.10;1.47;;;;;;;;;;6251216;28;20197;-61
2023/04/12 04:43:41;;;;;;;2.43;1.60;;;;;;;;;;6260751;28;20182;-61
2023/04/12 04:46:42;;;;;;;3.13;1.43;;;;;;;;;;6253387;28;20221;-61
2023/04/12 04:49:44;;;;;;;2.37;1.43;;;;;;;;;;6285289;28;20264;-61
2023/04/12 04:52:47;;;;;;;4.53;1.47;;;;;;;;;;6284484;28;20221;-62
2023/04/12 04:55:48;;;;;;;1.90;1.63;;;;;;;;;;6270429;28;20293;-61
2023/04/12 04:58:49;;;;;;;3.77;1.70;;;;;;;;;;6255743;28;20196;-62
2023/04/12 05:01:51;;;;;;;2.37;1.80;;;;;;;;;;6245510;28;20198;-62
2023/04/12 05:04:55;;;;;;;2.03;1.83;;;;;;;;;;6278276;28;20205;-62
2023/04/12 05:07:57;;;;;;;2.77;1.47;;;;;;;;;;6254717;28;20300;-61
2023/04/12 05:10:58;;;;;;;3.20;1.83;;;;;;;;;;6274460;28;20267;-61
2023/04/12 05:13:59;;;;;;;2.73;1.80;;;;;;;;;;6254225;28;20197;-62
2023/04/12 05:17:00;;;;;;;3.50;1.80;;;;;;;;;;6271471;28;20194;-62
2023/04/12 05:20:04;;;;;;;2.23;1.67;;;;;;;;;;6253806;28;20237;-62
2023/04/12 05:23:06;;;;;;;2.27;1.53;;;;;;;;;;6288358;28;20285;-61
2023/04/12 05:26:07;;;;;;;2.83;1.90;;;;;;;;;;6253462;28;20197;-61
2023/04/12 05:29:08;;;;;;;2.53;1.70;;;;;;;;;;6261564;28;20202;-62
2023/04/12 05:32:09;;;;;;;2.63;1.90;;;;;;;;;;6252462;28;20209;-62
2023/04/12 05:35:10;;;;;;;1.73;1.60;;;;;;;;;;6287492;28;20244;-62
2023/04/12 05:38:11;;;;;;;2.23;1.60;;;;;;;;;;6254740;28;20243;-62
2023/04/12 05:41:12;;;;;;;3.00;1.60;;;;;;;;;;6287898;28;20254;-62
2023/04/12 05:44:13;;;;;;;4.07;2.13;;;;;;;;;;6245050;28;20221;-62
2023/04/12 05:47:14;;;;;;;4.33;1.90;;;;;;;;;;6254388;28;21063;-62
2023/04/12 05:50:15;;;;;;;5.63;2.50;;;;;;;;;;6251845;28;20193;-62
2023/04/12 05:53:16;;;;;;;1.97;1.53;;;;;;;;;;6271118;28;20204;-62
2023/04/12 05:56:17;;;;;;;3.17;1.60;;;;;;;;;;6279137;28;20185;-62
2023/04/12 05:59:18;;;;;;;2.10;1.87;;;;;;;;;;6254042;28;20189;-62
2023/04/12 06:02:19;;;;;;;3.20;1.93;;;;;;;;;;6252833;28;20271;-62
2023/04/12 06:05:21;;;;;;;2.07;1.87;;;;;;;;;;6263821;28;20194;-62
2023/04/12 06:08:22;;;;;;;4.07;2.23;;;;;;;;;;6286384;28;20213;-62
2023/04/12 06:11:23;;;;;;;4.97;2.07;;;;;;;;;;6253189;28;20188;-62
2023/04/12 06:14:24;;;;;;;4.13;1.87;;;;;;;;;;6264137;28;20236;-62
2023/04/12 06:17:25;;;;;;;2.70;1.70;;;;;;;;;;6282962;28;20200;-62
2023/04/12 06:20:26;;;;;;;5.27;1.90;;;;;;;;;;6245893;28;20186;-62
2023/04/12 06:23:27;;;;;;;2.17;1.97;;;;;;;;;;6266916;28;20221;-62
2023/04/12 06:26:30;;;;;;;2.80;2.20;;;;;;;;;;6268336;28;20287;-62
2023/04/12 06:29:31;;;;;;;3.07;1.83;;;;;;;;;;6286624;28;20270;-62
2023/04/12 06:32:32;;;;;;;3.07;1.73;;;;;;;;;;6287097;28;20288;-62
2023/04/12 06:35:33;;;;;;;3.83;1.63;;;;;;;;;;6260868;28;20233;-62
2023/04/12 06:38:34;;;;;;;3.17;1.80;;;;;;;;;;6286789;28;20265;-62
2023/04/12 06:41:35;;;;;;;2.53;1.50;;;;;;;;;;6250808;28;20193;-62
2023/04/12 06:44:36;;;;;;;2.50;1.50;;;;;;;;;;6262773;28;20220;-62
2023/04/12 06:47:37;;;;;;;4.03;1.77;;;;;;;;;;6281353;28;20209;-62
2023/04/12 06:50:39;;;;;;;4.20;1.50;;;;;;;;;;6284155;28;20201;-61
2023/04/12 06:53:40;;;;;;;2.37;1.37;;;;;;;;;;6284528;28;20212;-61
2023/04/12 06:56:41;;;;;;;2.67;1.33;;;;;;;;;;6282510;28;20198;-61
2023/04/12 06:59:42;;;;;;;4.50;1.53;;;;;;;;;;6260743;28;20186;-61
2023/04/12 07:02:43;;;;;;;3.87;1.33;;;;;;;;;;6266101;28;20216;-61
2023/04/12 07:05:46;;;;;;;2.50;1.67;;;;;;;;;;6254364;28;20208;-61
2023/04/12 07:08:47;;;;;;;1.90;1.03;;;;;;;;;;6291513;28;20237;-61
2023/04/12 07:11:48;;;;;;;3.40;1.33;;;;;;;;;;6287555;28;20213;-62
2023/04/12 07:14:49;;;;;;;5.13;1.27;;;;;;;;;;6246579;28;20277;-61
2023/04/12 07:17:50;;;;;;;2.13;1.37;;;;;;;;;;6257976;28;20205;-61
2023/04/12 07:20:53;;;;;;;1.37;0.83;;;;;;;;;;6269762;28;20194;-61
2023/04/12 07:23:55;;;;;;;2.20;1.10;;;;;;;;;;6287061;28;20261;-61
2023/04/12 07:26:56;;;;;;;3.00;1.37;;;;;;;;;;6274970;28;20300;-61
2023/04/12 07:29:57;;;;;;;2.73;1.23;;;;;;;;;;6258148;28;20185;-61
2023/04/12 07:33:04;;;;;;;1.60;0.70;;;;;;;;;;6246431;28;20193;-61
2023/04/12 07:36:05;;;;;;;2.00;1.00;;;;;;;;;;6290880;28;20225;-61
2023/04/12 07:39:10;;;;;;;1.70;1.20;;;;;;;;;;6251990;28;20197;-61
2023/04/12 07:42:11;;;;;;;1.43;0.93;;;;;;;;;;6274517;28;20190;-62
2023/04/12 07:45:12;;;;;;;1.43;1.27;;;;;;;;;;6257168;28;20208;-61
2023/04/12 07:48:13;;;;;;;2.93;1.13;;;;;;;;;;6257660;28;20270;-62
2023/04/12 07:51:15;;;;;;;2.53;1.27;;;;;;;;;;6245542;28;20193;-61
2023/04/12 07:54:16;;;;;;;3.90;1.30;;;;;;;;;;6257067;28;20193;-61
2023/04/12 07:57:17;;;;;;;1.10;1.00;;;;;;;;;;6245155;28;20190;-61
2023/04/12 08:00:18;;;;;;;1.37;1.07;;;;;;;;;;6289684;28;20192;-62
2023/04/12 08:03:19;;;;;;;1.40;1.10;;;;;;;;;;6287456;28;20197;-61
2023/04/12 08:06:20;;;;;;;2.90;1.10;;;;;;;;;;6257058;28;20201;-61
2023/04/12 08:09:21;;;;;;;2.57;1.37;;;;;;;;;;6258569;28;20285;-61
2023/04/12 08:12:22;;;;;;;2.03;1.33;;;;;;;;;;6256332;28;20185;-61
2023/04/12 08:15:23;;;;;;;1.07;0.90;;;;;;;;;;6245968;28;20235;-61
2023/04/12 08:18:25;;;;;;;1.70;1.10;;;;;;;;;;6256689;28;20200;-61
2023/04/12 08:21:26;;;;;;;1.97;1.37;;;;;;;;;;6240874;28;20213;-61
2023/04/12 08:24:27;;;;;;;2.17;1.00;;;;;;;;;;6273390;28;20278;-61
2023/04/12 08:27:29;;;;;;;2.63;1.30;;;;;;;;;;6255591;28;20219;-61
2023/04/12 08:30:30;;;;;;;3.37;1.27;;;;;;;;;;6272895;28;20225;-61
2023/04/12 08:33:31;;;;;;;4.67;1.70;;;;;;;;;;6281197;28;20182;-61
2023/04/12 08:36:32;;;;;;;4.80;1.80;;;;;;;;;;6243406;28;20237;-61
2023/04/12 08:39:33;;;;;;;2.67;1.50;;;;;;;;;;6249667;28;20243;-62
2023/04/12 08:42:37;;;;;;;2.33;1.73;;;;;;;;;;6283994;28;20186;-62
2023/04/12 08:45:39;;;;;;;3.30;2.10;;;;;;;;;;6283732;28;20190;-62
2023/04/12 08:48:42;;;;;;;2.77;2.00;;;;;;;;;;6255886;28;20218;-61
2023/04/12 08:51:43;;;;;;;5.23;2.07;;;;;;;;;;6288673;28;20213;-61
2023/04/12 08:54:44;;;;;;;4.43;1.70;;;;;;;;;;6288761;28;20183;-61
2023/04/12 08:57:46;;;;;;;4.10;2.10;;;;;;;;;;6255151;28;20189;-62
2023/04/12 09:00:47;;;;;;;5.90;1.90;;;;;;;;;;6267624;28;20229;-62
2023/04/12 09:03:48;;;;;;;3.63;1.57;;;;;;;;;;6268657;28;20201;-62
2023/04/12 09:06:49;;;;;;;4.03;1.80;;;;;;;;;;6254766;28;20209;-62
2023/04/12 09:09:50;;;;;;;3.03;1.70;;;;;;;;;;6254801;28;20328;-62
2023/04/12 09:12:51;;;;;;;3.83;1.50;;;;;;;;;;6255064;28;20222;-61
2023/04/12 09:15:52;;;;;;;3.80;1.63;;;;;;;;;;6256598;28;20224;-61
2023/04/12 09:18:54;;;;;;;1.90;1.47;;;;;;;;;;6271417;28;20193;-61
2023/04/12 09:21:56;;;;;;;3.43;2.13;;;;;;;;;;6251944;28;20191;-61
2023/04/12 09:24:57;;;;;;;3.33;1.67;;;;;;;;;;6285215;28;20274;-61
2023/04/12 09:27:58;;;;;;;3.10;1.47;;;;;;;;;;6271482;28;20266;-61
2023/04/12 09:30:59;;;;;;;3.63;1.47;;;;;;;;;;6250014;28;20194;-61
2023/04/12 09:34:06;;;;;;;3.63;1.60;;;;;;;;;;6269598;28;20190;-61
2023/04/12 09:37:15;;;;;;;2.97;1.60;;;;;;;;;;6283964;28;20194;-61
2023/04/12 09:40:22;;;;;;;3.93;1.60;;;13.20;43.30;;;;;;6279523;28;20206;-61
2023/04/12 09:43:38;;;;;;;3.50;1.50;;;13.30;41.60;;;;;;6246713;28;20273;-61
2023/04/12 09:46:50;;;;;;;4.33;1.80;;;13.20;43.40;;;;;;6251090;28;20226;-61
2023/04/12 09:49:51;;;;;;;9.37;1.73;;;13.40;42.70;;;;;;6271570;28;20194;-61
2023/04/12 09:52:53;;;;;;;3.67;1.77;;;13.50;43.30;;;;;;6251758;28;20194;-61
2023/04/12 09:55:56;;;;;;;6.00;1.90;;;13.50;43.70;;;;;;6263052;28;20235;-61
2023/04/12 09:59:01;;;;;;;2.13;1.60;;;13.60;42.90;;;;;;6280706;28;20204;-61
2023/04/12 10:02:25;;;;;;;3.03;1.60;;;13.70;41.80;;;;;;6267621;28;20200;-61
2023/04/12 10:05:26;;;;;;;4.30;1.87;;;13.90;41.80;;;;;;6270145;28;20251;-61
2023/04/12 10:08:27;;;;;;;2.93;1.70;;;14.20;42.20;;;;;;6253238;28;20247;-61
2023/04/12 10:11:28;;;;;;;4.17;1.60;;;14.40;41.70;;;;;;6259131;28;20189;-61
2023/04/12 10:14:29;;;;;;;2.27;1.47;;;14.70;41.10;;;;;;6236650;28;20189;-61
2023/04/12 10:17:33;;;;;;;1.87;1.17;;;15.00;40.60;;;;;;6246439;28;20266;-61
2023/04/12 10:20:35;;;;;;;1.67;1.20;;;15.00;37.80;;;;;;6253996;28;20191;-61
2023/04/12 10:23:36;;;;;;;3.47;1.40;;;15.00;41.40;;;;;;6279343;28;20190;-61
2023/04/12 10:26:42;;;;;;;3.87;1.93;;;15.00;40.30;;;;;;6241168;28;20194;-61
2023/04/12 10:29:43;;;;;;;2.47;1.60;;;15.10;41.50;;;;;;6275831;28;20225;-61
2023/04/12 10:32:43;;;;;;;4.57;1.73;;;15.40;39.50;;;;;;6242830;28;20193;-60
2023/04/12 10:35:47;;;;;;;4.20;2.03;;;;;;;;;;6258389;28;20245;-60
2023/04/12 10:39:07;;;;;;;4.47;2.03;;;;;;;;;;6290492;28;20193;-61
2023/04/12 10:42:27;;;;;;;1.80;1.70;;;;;;;;;;6293508;28;20335;-61
2023/04/12 10:45:32;;;;;;;2.83;1.57;;;;;;;;;;6277437;28;20202;-61
2023/04/12 10:48:50;;;;;;;2.23;1.87;;;;;;;;;;6259013;28;20241;-61
2023/04/12 10:52:01;;;;;;;3.77;1.80;;;;;;;;;;6285378;28;20256;-61
2023/04/12 10:55:22;;;;;;;3.77;1.87;;;;;;;;;;6282581;28;20209;-61
2023/04/12 10:58:42;;;;;;;3.83;2.00;;;;;;;;;;6278960;28;20198;-61
2023/04/12 11:02:13;;;;;;;2.67;1.60;;;;;;;;;;6291750;28;20198;-61
2023/04/12 11:05:17;;;;;;;3.27;1.47;;;;;;;;;;6255730;28;20221;-61
2023/04/12 11:08:19;;;;;;;3.00;1.63;;;;;;;;;;6274506;28;20210;-61
2023/04/12 11:11:21;;;;;;;4.30;2.27;;;;;;;;;;6277606;28;20312;-60
2023/04/12 11:14:29;;;;;;;2.43;1.67;;;15.40;41.10;;;;;;6276981;28;20202;-61
2023/04/12 11:17:30;;;;;;;2.73;1.80;;;17.00;35.00;;;;;;6270938;28;20222;-61
2023/04/12 11:20:32;;;;;;;3.17;1.80;;;16.80;38.40;;;;;;6234145;28;20189;-61
2023/04/12 11:23:35;;;;;;;3.13;1.97;;;16.70;37.10;;;;;;6273743;28;20197;-61
2023/04/12 11:26:36;;;;;;;2.30;1.77;;;;;;;;;;6276541;28;20192;-61
2023/04/12 11:29:38;;;;;;;3.37;1.73;;;;;;;;;;6291172;28;20907;-61
2023/04/12 11:32:40;;;;;;;3.00;1.47;;;;;;;;;;6290648;28;20280;-61
2023/04/12 11:35:43;;;;;;;3.67;1.90;;;;;;;;;;6273123;28;20252;-61
2023/04/12 11:38:44;;;;;;;3.33;1.47;;;;;;;;;;6265280;28;20202;-66
2023/04/12 11:41:46;;;;;;;3.90;1.83;;;;;;;;;;6286536;28;20194;-66
2023/04/12 11:44:47;;;;;;;2.37;1.77;;;;;;;;;;6246438;28;20186;-65
2023/04/12 11:47:50;;;;;;;2.90;1.90;;;16.90;36.80;;;;;;6290692;28;20213;-65
2023/04/12 11:50:51;;;;;;;3.37;2.10;;;18.40;34.60;;;;;;6257126;28;20198;-62
2023/04/12 11:53:53;;;;;;;4.13;2.53;;;18.70;34.70;;;;;;6263039;28;20194;-62
2023/04/12 11:56:56;;;;;;;3.33;1.97;;;18.80;33.70;;;;;;6285046;28;20258;-62
2023/04/12 11:59:59;;;;;;;3.37;2.13;;;17.70;36.40;;;;;;6273617;28;20186;-62
2023/04/12 12:02:59;;;;;;;2.43;1.93;;;17.60;36.00;;;;;;6260760;28;20201;-62
2023/04/12 12:06:00;;;;;;;2.73;1.90;;;18.10;35.30;;;;;;6273727;28;20239;-61
2023/04/12 12:09:02;;;;;;;4.40;2.10;;;18.20;34.60;;;;;;6239688;28;20217;-61
2023/04/12 12:12:03;;;;;;;4.70;2.10;;;17.60;34.70;;;;;;6273601;28;20182;-61
2023/04/12 12:15:05;;;;;;;3.83;2.50;;;17.80;36.00;;;;;;6251005;28;20293;-61
2023/04/12 12:18:08;;;;;;;2.40;2.00;;;18.20;34.20;;;;;;6248473;28;20198;-61
2023/04/12 12:21:13;;;;;;;3.83;2.23;;;18.20;34.70;;;;;;6240252;28;20198;-61
2023/04/12 12:24:15;;;;;;;3.33;1.80;;;18.20;34.60;;;;;;6254717;28;20202;-61
2023/04/12 12:27:23;;;;;;;3.53;1.90;;;19.00;35.10;;;;;;6256097;28;20225;-61
2023/04/12 12:30:24;;;;;;;3.83;2.27;;;19.90;33.70;;;;;;6247677;28;20197;-60
2023/04/12 12:33:39;;;;;;;4.27;2.00;;;21.00;33.00;;;;;;6288659;28;20214;-60
2023/04/12 12:36:40;;;;;;;4.73;2.73;;;22.00;30.10;;;;;;6245916;28;20245;-61
2023/04/12 12:40:15;;;;;;;3.40;2.23;;;22.50;29.00;;;;;;6270557;28;20177;-60
2023/04/12 12:43:19;;;;;;;2.70;1.80;;;23.00;29.50;;;;;;6283828;28;20182;-60
2023/04/12 12:46:20;;;;;;;4.47;2.20;;;23.90;29.10;;;;;;6246162;28;20197;-60
2023/04/12 12:49:21;;;;;;;4.10;2.40;;;24.30;28.10;;;;;;6272265;28;20202;-60
2023/04/12 12:52:22;;;;;;;2.20;1.97;;;24.50;27.50;;;;;;6239193;28;20193;-59
2023/04/12 12:55:23;;;;;;;2.73;2.17;;;24.20;29.10;;;;;;6257765;28;20211;-60
2023/04/12 12:58:24;;;;;;;4.03;2.30;;;24.50;28.70;;;;;;6257453;28;20251;-60
2023/04/12 13:01:26;;;;;;;3.43;2.37;;;24.50;28.30;;;;;;6233276;28;20194;-61
2023/04/12 13:04:27;;;;;;;3.00;2.10;;;23.30;28.30;;;;;;6240533;28;20186;-61
2023/04/12 13:07:28;;;;;;;3.63;2.60;;;22.60;30.30;;;;;;6278065;28;20216;-61
2023/04/12 13:10:29;;;;;;;2.93;2.17;;;22.20;30.10;;;;;;6240458;28;20189;-61
2023/04/12 13:13:30;;;;;;;3.93;2.93;;;22.10;31.00;;;;;;6273985;28;20185;-59
2023/04/12 13:16:30;;;;;;;2.00;1.80;;;21.40;31.10;;;;;;6232740;28;20281;-61
2023/04/12 13:19:32;;;;;;;2.73;2.30;;;20.80;32.20;;;;;;6257463;28;20201;-61
2023/04/12 13:22:32;;;;;;;3.57;2.47;;;20.50;32.10;;;;;;6242745;28;20186;-61
2023/04/12 13:25:33;;;;;;;6.63;2.60;;;19.90;31.70;;;;;;6273073;28;20194;-61
2023/04/12 13:28:34;;;;;;;5.77;2.77;;;19.30;32.30;;;;;;6272349;28;20213;-61
2023/04/12 13:31:35;;;;;;;2.33;2.07;;;19.00;34.70;;;;;;6238129;28;20265;-61
2023/04/12 13:34:35;;;;;;;2.93;2.20;;;19.40;33.50;;;;;;6265148;28;20369;-61
2023/04/12 13:37:36;;;;;;;2.87;2.43;;;20.30;31.30;;;;;;6270353;28;20197;-62
2023/04/12 13:40:37;;;;;;;4.10;2.10;;;21.10;30.40;;;;;;6246084;28;20225;-62
2023/04/12 13:43:37;;;;;;;2.93;2.30;;;21.80;29.90;;;;;;6269982;28;20246;-63
2023/04/12 13:46:38;;;;;;;3.50;2.40;;;21.80;30.00;;;;;;6245910;28;20180;-63
2023/04/12 13:49:39;;;;;;;4.77;2.23;;;22.30;28.90;;;;;;6288863;28;20189;-63
2023/04/12 13:52:40;;;;;;;3.77;2.47;;;22.10;29.60;;;;;;6270174;28;20217;-63
2023/04/12 13:55:40;;;;;;;2.77;1.93;;;21.80;29.70;;;;;;6236255;28;20190;-63
2023/04/12 13:58:42;;;;;;;2.20;1.63;;;23.40;28.40;;;;;;6242925;28;20185;-63
2023/04/12 14:01:42;;;;;;;3.77;2.37;;;24.70;27.40;;;;;;6286546;28;20197;-61
2023/04/12 14:04:51;;;;;;;4.40;2.50;;;26.60;26.10;;;;;;6245840;28;20232;-61
2023/04/12 14:07:52;;;;;;;2.53;2.10;;;27.50;25.60;;;;;;6301656;28;20210;-63
2023/04/12 14:10:55;;;;;;;3.83;2.33;;;27.40;26.20;;;;;;6253615;28;20181;-61
2023/04/12 14:13:56;;;;;;;2.83;2.30;;;;;;;;;;6254947;28;20194;-60
2023/04/12 14:17:00;;;;;;;2.53;2.27;;;26.80;26.40;;;;;;6270962;28;20185;-61
2023/04/12 14:20:01;;;;;;;4.70;2.40;;;25.60;27.30;;;;;;6262399;28;20186;-61
2023/04/12 14:23:01;;;;;;;3.13;2.10;;;26.40;27.50;;;;;;6254783;28;20235;-61
2023/04/12 14:26:02;;;;;;;2.47;1.90;;;26.70;27.00;;;;;;6239674;28;20186;-61
2023/04/12 14:29:03;;;;;;;4.00;2.90;;;26.70;26.70;;;;;;6244676;28;20226;-61
2023/04/12 14:32:04;;;;;;;6.80;2.93;;;26.10;26.20;;;;;;6265593;28;20196;-61
2023/04/12 14:35:05;;;;;;;2.37;2.17;;;25.30;26.70;;;;;;6251728;28;20221;-61
2023/04/12 14:38:05;;;;;;;4.90;2.13;;;24.80;27.00;;;;;;6237854;28;20191;-61
2023/04/12 14:41:07;;;;;;;2.60;2.10;;;25.50;27.60;;;;;;6237838;28;20189;-61
2023/04/12 14:44:08;;;;;;;2.90;2.07;;;26.60;26.90;;;;;;6284531;28;20197;-61
2023/04/12 14:47:09;;;;;;;3.60;2.60;;;27.10;26.90;;;;;;6237921;28;20233;-60
2023/04/12 14:50:10;;;;;;;4.53;2.40;;;26.60;26.70;;;;;;6247494;28;20185;-60
2023/04/12 14:53:12;;;;;;;3.47;1.80;;;26.70;26.20;;;;;;6252998;28;20208;-61
2023/04/12 14:56:21;;;;;;;2.87;2.40;;;26.50;26.00;;;;;;6258226;28;20189;-59
2023/04/12 14:59:22;;;;;;;3.77;2.33;;;27.80;25.20;;;;;;6270759;28;20185;-59
2023/04/12 15:02:22;;;;;;;3.30;1.90;;;28.20;25.50;;;;;;6237523;28;20182;-59
2023/04/12 15:05:23;;;;;;;3.97;2.20;;;28.00;25.50;;;;;;6280556;28;20276;-59
2023/04/12 15:08:24;;;;;;;4.03;2.17;;;27.80;25.60;;;;;;6243261;28;20213;-60
2023/04/12 15:11:28;;;;;;;3.57;2.40;;;26.90;26.20;;;;;;6240972;28;20182;-60
2023/04/12 15:14:29;;;;;;;3.23;2.57;;;25.50;26.60;;;;;;6264740;28;20289;-60
2023/04/12 15:17:30;;;;;;;5.90;2.37;;;23.60;27.90;;;;;;6257974;28;20186;-60
2023/04/12 15:20:31;;;;;;;3.23;2.70;;;22.30;29.50;;;;;;6290370;28;20268;-63
2023/04/12 15:23:32;;;;;;;4.90;2.60;;;;;;;;;;6241426;28;20188;-63
2023/04/12 15:26:35;;;;;;;2.50;2.30;;;;;;;;;;6272451;28;20181;-60
2023/04/12 15:29:36;;;;;;;2.90;2.30;;;;;;;;;;6259740;28;20220;-61
2023/04/12 15:32:37;;;;;;;4.80;2.13;;;;;;;;;;6259191;28;20206;-61
2023/04/12 15:35:38;;;;;;;2.83;1.97;;;;;;;;;;6256975;28;20245;-61
2023/04/12 15:38:43;;;;;;;2.60;1.87;;;;;;;;;;6282345;28;20194;-61
2023/04/12 15:41:43;;;;;;;2.93;2.10;;;21.30;30.70;;;;;;6272757;28;20182;-61
2023/04/12 15:44:44;;;;;;;2.60;2.37;;;18.80;36.80;;;;;;6259077;28;20231;-61
2023/04/12 15:47:45;;;;;;;2.10;1.90;;;;;;;;;;6285791;28;20297;-61
2023/04/12 15:50:47;;;;;;;2.47;2.27;;;18.60;37.80;;;;;;6249521;28;20219;-61
2023/04/12 15:53:48;;;;;;;3.40;2.00;;;18.10;38.30;;;;;;6265481;28;20190;-61
2023/04/12 15:56:49;;;;;;;2.63;1.83;;;;;;;;;;6292155;28;20197;-60
2023/04/12 15:59:51;;;;;;;4.57;1.90;;;18.00;38.70;;;;;;6258482;28;20190;-60
2023/04/12 16:02:54;;;;;;;2.17;1.93;;;;;;;;;;6258593;28;20198;-61
2023/04/12 16:05:55;;;;;;;2.73;2.00;;;;;;;;;;6271087;28;20195;-61
2023/04/12 16:08:56;;;;;;;3.60;2.23;;;;;;;;;;6256112;28;20312;-61
2023/04/12 16:11:59;;;;;;;2.13;1.93;;;17.50;39.10;;;;;;6285339;28;20193;-61
2023/04/12 16:14:59;;;;;;;2.13;1.73;;;16.80;39.90;;;;;;6251142;28;20267;-61
2023/04/12 16:18:01;;;;;;;2.20;2.00;;;;;;;;;;6258416;28;20251;-61
2023/04/12 16:21:03;;;;;;;3.90;1.80;;;;;;;;;;6266388;28;20186;-60
2023/04/12 16:24:04;;;;;;;4.33;2.17;;;;;;;;;;6267224;28;20285;-62
2023/04/12 16:27:06;;;;;;;4.70;2.23;;;;;;;;;;6270235;28;20237;-62
2023/04/12 16:30:09;;;;;;;3.57;1.77;;;;;;;;;;6258495;28;20198;-61
2023/04/12 16:33:10;;;;;;;2.13;1.93;;;;;;;;;;6257512;28;20199;-61
2023/04/12 16:36:12;;;;;;;2.67;1.80;;;;;;;;;;6250350;28;20245;-61
2023/04/12 16:39:13;;;;;;;3.57;2.10;;;;;;;;;;6272266;28;20186;-61
2023/04/12 16:42:14;;;;;;;4.30;2.60;;;;;;;;;;6259039;28;20189;-61
2023/04/12 16:45:16;;;;;;;11.30;4.60;;;;;;;;;;6289088;28;20218;-61
2023/04/12 16:48:21;;;;;;;12.60;6.20;;;;;;;;;;6283477;28;20213;-61
2023/04/12 16:51:22;;;;;;;12.13;6.23;;;;;;;;;;6257512;28;20193;-61
2023/04/12 16:54:23;;;;;;;16.13;6.93;;;16.70;40.50;;;;;;6268679;28;20185;-61
2023/04/12 16:57:23;;;;;;;11.67;6.50;;;15.70;45.60;;;;;;6252874;28;20195;-61
2023/04/12 17:00:27;;;;;;;9.87;4.93;;;;;;;;;;6264051;28;20202;-61
2023/04/12 17:03:29;;;;;;;8.30;3.73;;;;;;;;;;6247264;28;20278;-61
2023/04/12 17:06:32;;;;;;;11.00;3.83;;;15.60;45.70;;;;;;6281688;28;20189;-61
2023/04/12 17:09:33;;;;;;;4.30;2.90;;;15.30;45.90;;;;;;6231020;28;20215;-61
2023/04/12 17:12:35;;;;;;;4.13;2.53;;;15.20;46.30;;;;;;6283938;28;20191;-61
2023/04/12 17:15:36;;;;;;;2.73;2.10;;;15.10;46.70;;;;;;6241589;28;20277;-62
2023/04/12 17:18:39;;;;;;;4.70;2.53;;;;;;;;;;6256718;28;20199;-63
2023/04/12 17:21:40;;;;;;;6.50;2.63;;;;;;;;;;6257340;28;20292;-61
2023/04/12 17:24:43;;;;;;;2.30;1.90;;;;;;;;;;6250853;28;20268;-60